sensor_id;sensor_type;location;lat;lon;timestamp;pressure;altitude;pressure_sealevel;temperature;humidity
21520;BME280;10921;53.614;9.882;2023-10-08T00:01:19;101888.09;;;13.24;100.00
21520;BME280;10921;53.614;9.882;2023-10-08T00:03:48;101878.03;;;13.17;100.00
21520;BME280;10921;53.614;9.882;2023-10-08T00:06:20;101891.63;;;13.25;100.00
21520;BME280;10921;53.614;9.882;2023-10-08T00:08:48;101908.69;;;13.24;100.00
21520;BME280;10921;53.614;9.882;2023-10-08T00:11:16;101900.66;;;13.24;100.00
21520;BME280;10921;53.614;9.882;2023-10-08T00:13:43;101898.81;;;13.24;100.00
21520;BME280;10921;53.614;9.882;2023-10-08T00:16:11;101879.25;;;13.13;100.00
21520;BME280;10921;53.614;9.882;2023-10-08T00:18:44;101896.53;;;13.20;100.00
21520;BME280;10921;53.614;9.882;2023-10-08T00:21:19;101878.75;;;13.19;100.00
21520;BME280;10921;53.614;9.882;2023-10-08T00:23:52;101888.34;;;13.21;100.00
21520;BME280;10921;53.614;9.882;2023-10-08T00:26:22;101855.50;;;12.98;100.00
21520;BME280;10921;53.614;9.882;2023-10-08T00:31:23;101901.75;;;13.21;100.00
21520;BME280;10921;53.614;9.882;2023-10-08T00:33:57;101913.47;;;13.20;100.00
21520;BME280;10921;53.614;9.882;2023-10-08T00:36:24;101926.00;;;13.20;100.00
21520;BME280;10921;53.614;9.882;2023-10-08T00:38:50;101940.25;;;13.20;100.00
21520;BME280;10921;53.614;9.882;2023-10-08T00:41:20;101914.81;;;12.94;100.00
21520;BME280;10921;53.614;9.882;2023-10-08T00:43:50;101970.72;;;13.19;100.00
21520;BME280;10921;53.614;9.882;2023-10-08T00:46:17;101957.38;;;13.08;100.00
21520;BME280;10921;53.614;9.882;2023-10-08T00:48:52;101943.63;;;13.01;100.00
21520;BME280;10921;53.614;9.882;2023-10-08T00:51:24;101968.56;;;13.13;100.00
21520;BME280;10921;53.614;9.882;2023-10-08T00:54:00;101969.03;;;13.18;100.00
21520;BME280;10921;53.614;9.882;2023-10-08T00:56:35;101941.88;;;13.12;100.00
21520;BME280;10921;53.614;9.882;2023-10-08T00:59:33;101944.78;;;13.20;100.00
21520;BME280;10921;53.614;9.882;2023-10-08T01:02:12;101949.28;;;13.19;100.00
21520;BME280;10921;53.614;9.882;2023-10-08T01:04:46;101912.00;;;12.95;100.00
21520;BME280;10921;53.614;9.882;2023-10-08T01:07:14;101953.19;;;13.15;100.00
21520;BME280;10921;53.614;9.882;2023-10-08T01:09:44;101964.50;;;13.19;100.00
21520;BME280;10921;53.614;9.882;2023-10-08T01:12:21;101961.22;;;13.15;100.00
21520;BME280;10921;53.614;9.882;2023-10-08T01:14:48;101963.66;;;13.18;100.00
21520;BME280;10921;53.614;9.882;2023-10-08T01:17:19;101971.81;;;13.17;100.00
21520;BME280;10921;53.614;9.882;2023-10-08T01:19:46;101966.84;;;13.33;100.00
21520;BME280;10921;53.614;9.882;2023-10-08T01:22:42;101986.53;;;13.22;100.00
21520;BME280;10921;53.614;9.882;2023-10-08T01:25:08;101975.09;;;13.20;100.00
21520;BME280;10921;53.614;9.882;2023-10-08T01:27:36;101928.34;;;12.92;100.00
21520;BME280;10921;53.614;9.882;2023-10-08T01:30:04;101985.09;;;13.18;100.00
21520;BME280;10921;53.614;9.882;2023-10-08T01:32:41;101980.59;;;13.19;100.00
21520;BME280;10921;53.614;9.882;2023-10-08T01:35:09;101981.56;;;13.18;100.00
21520;BME280;10921;53.614;9.882;2023-10-08T01:37:50;101979.75;;;13.18;100.00
21520;BME280;10921;53.614;9.882;2023-10-08T01:40:17;101984.25;;;13.18;100.00
21520;BME280;10921;53.614;9.882;2023-10-08T01:42:50;101985.22;;;13.17;100.00
21520;BME280;10921;53.614;9.882;2023-10-08T01:45:17;102000.31;;;13.18;100.00
21520;BME280;10921;53.614;9.882;2023-10-08T01:47:45;101985.00;;;13.09;100.00
21520;BME280;10921;53.614;9.882;2023-10-08T01:50:17;101995.81;;;13.18;100.00
21520;BME280;10921;53.614;9.882;2023-10-08T01:52:54;101979.75;;;13.18;100.00
21520;BME280;10921;53.614;9.882;2023-10-08T01:55:21;101959.50;;;13.14;100.00
21520;BME280;10921;53.614;9.882;2023-10-08T01:57:50;101928.53;;;13.00;100.00
21520;BME280;10921;53.614;9.882;2023-10-08T02:00:19;101939.31;;;13.10;100.00
21520;BME280;10921;53.614;9.882;2023-10-08T02:02:47;101926.19;;;13.07;100.00
21520;BME280;10921;53.614;9.882;2023-10-08T02:05:14;101940.75;;;13.14;100.00
21520;BME280;10921;53.614;9.882;2023-10-08T02:07:41;101931.16;;;13.12;100.00
21520;BME280;10921;53.614;9.882;2023-10-08T02:10:11;101931.28;;;13.10;100.00
21520;BME280;10921;53.614;9.882;2023-10-08T02:12:40;101943.31;;;13.16;100.00
21520;BME280;10921;53.614;9.882;2023-10-08T02:15:08;101931.66;;;13.06;100.00
21520;BME280;10921;53.614;9.882;2023-10-08T02:17:35;101952.97;;;13.07;100.00
21520;BME280;10921;53.614;9.882;2023-10-08T02:20:01;101970.63;;;13.10;100.00
21520;BME280;10921;53.614;9.882;2023-10-08T02:22:31;101976.97;;;13.09;100.00
21520;BME280;10921;53.614;9.882;2023-10-08T02:25:02;101971.88;;;13.06;100.00
21520;BME280;10921;53.614;9.882;2023-10-08T02:27:30;101948.13;;;12.80;100.00
21520;BME280;10921;53.614;9.882;2023-10-08T02:29:59;101996.50;;;12.99;100.00
21520;BME280;10921;53.614;9.882;2023-10-08T02:32:26;101998.47;;;12.97;100.00
21520;BME280;10921;53.614;9.882;2023-10-08T02:34:53;102001.41;;;12.94;100.00
21520;BME280;10921;53.614;9.882;2023-10-08T02:37:20;102003.72;;;12.88;100.00
21520;BME280;10921;53.614;9.882;2023-10-08T02:39:46;102008.50;;;12.84;100.00
21520;BME280;10921;53.614;9.882;2023-10-08T02:42:13;102010.84;;;12.78;100.00
21520;BME280;10921;53.614;9.882;2023-10-08T02:44:40;102023.72;;;12.84;100.00
21520;BME280;10921;53.614;9.882;2023-10-08T02:47:09;102021.81;;;12.75;100.00
21520;BME280;10921;53.614;9.882;2023-10-08T02:49:40;102035.06;;;12.76;100.00
21520;BME280;10921;53.614;9.882;2023-10-08T02:52:11;101978.81;;;12.44;100.00
21520;BME280;10921;53.614;9.882;2023-10-08T02:54:39;102030.69;;;12.75;100.00
21520;BME280;10921;53.614;9.882;2023-10-08T02:57:05;102031.78;;;12.73;100.00
21520;BME280;10921;53.614;9.882;2023-10-08T02:59:40;102009.06;;;12.56;100.00
21520;BME280;10921;53.614;9.882;2023-10-08T03:02:12;102049.94;;;12.69;100.00
21520;BME280;10921;53.614;9.882;2023-10-08T03:04:46;102044.84;;;12.66;100.00
21520;BME280;10921;53.614;9.882;2023-10-08T03:07:16;102052.88;;;12.66;100.00
21520;BME280;10921;53.614;9.882;2023-10-08T03:09:50;102050.94;;;12.57;100.00
21520;BME280;10921;53.614;9.882;2023-10-08T03:12:17;102061.41;;;12.60;100.00
21520;BME280;10921;53.614;9.882;2023-10-08T03:14:44;102048.25;;;12.57;100.00
21520;BME280;10921;53.614;9.882;2023-10-08T03:17:28;102059.94;;;12.56;100.00
21520;BME280;10921;53.614;9.882;2023-10-08T03:19:56;102061.03;;;12.53;100.00
21520;BME280;10921;53.614;9.882;2023-10-08T03:22:48;102058.38;;;12.53;100.00
21520;BME280;10921;53.614;9.882;2023-10-08T03:25:16;102031.41;;;12.34;100.00
21520;BME280;10921;53.614;9.882;2023-10-08T03:27:44;102062.41;;;12.48;100.00
21520;BME280;10921;53.614;9.882;2023-10-08T03:30:11;102068.75;;;12.47;100.00
21520;BME280;10921;53.614;9.882;2023-10-08T03:32:42;102039.94;;;12.28;100.00
21520;BME280;10921;53.614;9.882;2023-10-08T03:35:11;102069.63;;;12.36;100.00
21520;BME280;10921;53.614;9.882;2023-10-08T03:37:39;102081.75;;;12.40;100.00
21520;BME280;10921;53.614;9.882;2023-10-08T03:40:12;102054.41;;;12.14;100.00
21520;BME280;10921;53.614;9.882;2023-10-08T03:42:57;102084.34;;;12.30;100.00
21520;BME280;10921;53.614;9.882;2023-10-08T03:45:24;102075.59;;;12.17;100.00
21520;BME280;10921;53.614;9.882;2023-10-08T03:48:09;102081.91;;;12.16;100.00
21520;BME280;10921;53.614;9.882;2023-10-08T03:50:41;102086.63;;;12.24;100.00
21520;BME280;10921;53.614;9.882;2023-10-08T03:53:09;102080.56;;;12.22;100.00
21520;BME280;10921;53.614;9.882;2023-10-08T03:55:39;102062.22;;;12.06;100.00
21520;BME280;10921;53.614;9.882;2023-10-08T03:58:09;102086.41;;;12.16;100.00
21520;BME280;10921;53.614;9.882;2023-10-08T04:00:56;102071.44;;;12.13;100.00
21520;BME280;10921;53.614;9.882;2023-10-08T04:03:43;102085.91;;;12.11;100.00
21520;BME280;10921;53.614;9.882;2023-10-08T04:06:23;102102.06;;;12.09;100.00
21520;BME280;10921;53.614;9.882;2023-10-08T04:09:10;102049.13;;;11.68;100.00
21520;BME280;10921;53.614;9.882;2023-10-08T04:11:48;102109.53;;;12.06;100.00
21520;BME280;10921;53.614;9.882;2023-10-08T04:14:25;102086.88;;;11.98;100.00
21520;BME280;10921;53.614;9.882;2023-10-08T04:16:52;102090.16;;;12.02;100.00
21520;BME280;10921;53.614;9.882;2023-10-08T04:19:20;102099.91;;;12.03;100.00
21520;BME280;10921;53.614;9.882;2023-10-08T04:21:48;102096.00;;;11.96;100.00
21520;BME280;10921;53.614;9.882;2023-10-08T04:24:37;102112.44;;;12.03;100.00
21520;BME280;10921;53.614;9.882;2023-10-08T04:27:04;102107.44;;;11.98;100.00
21520;BME280;10921;53.614;9.882;2023-10-08T04:29:32;102114.59;;;11.97;100.00
21520;BME280;10921;53.614;9.882;2023-10-08T04:32:04;102114.94;;;11.93;100.00
21520;BME280;10921;53.614;9.882;2023-10-08T04:34:35;102118.59;;;11.81;100.00
21520;BME280;10921;53.614;9.882;2023-10-08T04:37:02;102149.50;;;11.96;100.00
21520;BME280;10921;53.614;9.882;2023-10-08T04:39:40;102148.63;;;11.95;100.00
21520;BME280;10921;53.614;9.882;2023-10-08T04:42:14;102137.19;;;11.82;100.00
21520;BME280;10921;53.614;9.882;2023-10-08T04:44:51;102161.28;;;11.93;100.00
21520;BME280;10921;53.614;9.882;2023-10-08T04:47:19;102129.91;;;11.84;100.00
21520;BME280;10921;53.614;9.882;2023-10-08T04:49:58;102152.41;;;11.93;100.00
21520;BME280;10921;53.614;9.882;2023-10-08T04:52:25;102166.75;;;11.92;100.00
21520;BME280;10921;53.614;9.882;2023-10-08T04:54:54;102156.91;;;11.92;100.00
21520;BME280;10921;53.614;9.882;2023-10-08T04:57:21;102096.00;;;11.61;100.00
21520;BME280;10921;53.614;9.882;2023-10-08T04:59:52;102114.38;;;11.66;100.00
21520;BME280;10921;53.614;9.882;2023-10-08T05:02:20;102146.81;;;11.85;100.00
21520;BME280;10921;53.614;9.882;2023-10-08T05:04:53;102153.63;;;11.89;100.00
21520;BME280;10921;53.614;9.882;2023-10-08T05:07:33;102141.91;;;11.79;100.00
21520;BME280;10921;53.614;9.882;2023-10-08T05:10:13;102147.59;;;11.74;100.00
21520;BME280;10921;53.614;9.882;2023-10-08T05:12:50;102171.97;;;11.82;100.00
21520;BME280;10921;53.614;9.882;2023-10-08T05:15:32;102134.56;;;11.58;100.00
21520;BME280;10921;53.614;9.882;2023-10-08T05:18:17;102173.88;;;11.80;100.00
21520;BME280;10921;53.614;9.882;2023-10-08T05:20:44;102162.28;;;11.69;100.00
21520;BME280;10921;53.614;9.882;2023-10-08T05:23:26;102182.38;;;11.74;100.00
21520;BME280;10921;53.614;9.882;2023-10-08T05:25:57;102182.59;;;11.71;100.00
21520;BME280;10921;53.614;9.882;2023-10-08T05:31:09;102167.97;;;11.64;100.00
21520;BME280;10921;53.614;9.882;2023-10-08T05:33:42;102192.16;;;11.62;100.00
21520;BME280;10921;53.614;9.882;2023-10-08T05:36:28;102202.94;;;11.61;100.00
21520;BME280;10921;53.614;9.882;2023-10-08T05:39:01;102157.66;;;11.36;100.00
21520;BME280;10921;53.614;9.882;2023-10-08T05:41:45;102202.34;;;11.57;100.00
21520;BME280;10921;53.614;9.882;2023-10-08T05:44:18;102178.69;;;11.40;100.00
21520;BME280;10921;53.614;9.882;2023-10-08T05:46:45;102206.09;;;11.55;100.00
21520;BME280;10921;53.614;9.882;2023-10-08T05:49:21;102204.50;;;11.52;100.00
21520;BME280;10921;53.614;9.882;2023-10-08T05:51:57;102216.16;;;11.51;100.00
21520;BME280;10921;53.614;9.882;2023-10-08T05:54:31;102221.00;;;11.46;100.00
21520;BME280;10921;53.614;9.882;2023-10-08T05:57:06;102221.69;;;11.37;100.00
21520;BME280;10921;53.614;9.882;2023-10-08T05:59:33;102214.53;;;11.38;100.00
21520;BME280;10921;53.614;9.882;2023-10-08T06:02:20;102200.06;;;11.16;100.00
21520;BME280;10921;53.614;9.882;2023-10-08T06:07:54;102205.22;;;11.07;100.00
21520;BME280;10921;53.614;9.882;2023-10-08T06:10:28;102241.09;;;11.15;100.00
21520;BME280;10921;53.614;9.882;2023-10-08T06:15:50;102234.81;;;11.04;100.00
21520;BME280;10921;53.614;9.882;2023-10-08T06:18:24;102256.19;;;11.04;100.00
21520;BME280;10921;53.614;9.882;2023-10-08T06:20:54;102267.75;;;11.04;100.00
21520;BME280;10921;53.614;9.882;2023-10-08T06:23:22;102268.81;;;11.02;100.00
21520;BME280;10921;53.614;9.882;2023-10-08T06:25:53;102261.66;;;11.02;100.00
21520;BME280;10921;53.614;9.882;2023-10-08T06:28:26;102273.53;;;10.98;100.00
21520;BME280;10921;53.614;9.882;2023-10-08T06:30:54;102270.34;;;10.93;100.00
21520;BME280;10921;53.614;9.882;2023-10-08T06:33:23;102285.06;;;10.99;100.00
21520;BME280;10921;53.614;9.882;2023-10-08T06:35:52;102282.50;;;10.97;100.00
21520;BME280;10921;53.614;9.882;2023-10-08T06:38:38;102291.38;;;10.98;100.00
21520;BME280;10921;53.614;9.882;2023-10-08T06:41:05;102291.50;;;10.96;100.00
21520;BME280;10921;53.614;9.882;2023-10-08T06:43:37;102306.66;;;10.96;100.00
21520;BME280;10921;53.614;9.882;2023-10-08T06:46:05;102304.19;;;10.92;100.00
21520;BME280;10921;53.614;9.882;2023-10-08T06:48:34;102260.66;;;10.67;100.00
21520;BME280;10921;53.614;9.882;2023-10-08T06:51:01;102314.56;;;10.97;100.00
21520;BME280;10921;53.614;9.882;2023-10-08T06:53:40;102275.16;;;10.75;100.00
21520;BME280;10921;53.614;9.882;2023-10-08T06:56:07;102313.50;;;11.00;100.00
21520;BME280;10921;53.614;9.882;2023-10-08T06:58:36;102327.47;;;11.03;100.00
21520;BME280;10921;53.614;9.882;2023-10-08T07:01:02;102322.97;;;11.04;100.00
21520;BME280;10921;53.614;9.882;2023-10-08T07:03:32;102287.03;;;10.84;100.00
21520;BME280;10921;53.614;9.882;2023-10-08T07:06:01;102312.72;;;11.10;100.00
21520;BME280;10921;53.614;9.882;2023-10-08T07:08:32;102308.75;;;11.16;100.00
21520;BME280;10921;53.614;9.882;2023-10-08T07:11:01;102314.72;;;11.19;100.00
21520;BME280;10921;53.614;9.882;2023-10-08T07:13:27;102327.78;;;11.24;100.00
21520;BME280;10921;53.614;9.882;2023-10-08T07:15:56;102323.06;;;11.27;100.00
21520;BME280;10921;53.614;9.882;2023-10-08T07:18:23;102328.91;;;11.33;100.00
21520;BME280;10921;53.614;9.882;2023-10-08T07:20:54;102330.31;;;11.38;100.00
21520;BME280;10921;53.614;9.882;2023-10-08T07:23:23;102327.41;;;11.41;100.00
21520;BME280;10921;53.614;9.882;2023-10-08T07:25:57;102327.81;;;11.48;100.00
21520;BME280;10921;53.614;9.882;2023-10-08T07:28:26;102332.81;;;11.52;100.00
21520;BME280;10921;53.614;9.882;2023-10-08T07:30:53;102335.81;;;11.60;100.00
21520;BME280;10921;53.614;9.882;2023-10-08T07:33:20;102343.38;;;11.67;100.00
21520;BME280;10921;53.614;9.882;2023-10-08T07:35:51;102350.94;;;11.73;100.00
21520;BME280;10921;53.614;9.882;2023-10-08T07:38:26;102353.19;;;11.79;100.00
21520;BME280;10921;53.614;9.882;2023-10-08T07:40:56;102352.13;;;11.81;100.00
21520;BME280;10921;53.614;9.882;2023-10-08T07:43:23;102357.88;;;11.88;100.00
21520;BME280;10921;53.614;9.882;2023-10-08T07:45:52;102350.59;;;11.90;100.00
21520;BME280;10921;53.614;9.882;2023-10-08T07:48:20;102360.19;;;11.92;100.00
21520;BME280;10921;53.614;9.882;2023-10-08T07:50:49;102338.63;;;11.83;100.00
21520;BME280;10921;53.614;9.882;2023-10-08T07:53:17;102368.41;;;12.02;100.00
21520;BME280;10921;53.614;9.882;2023-10-08T07:55:47;102370.78;;;11.94;100.00
21520;BME280;10921;53.614;9.882;2023-10-08T07:58:15;102378.25;;;12.02;100.00
21520;BME280;10921;53.614;9.882;2023-10-08T08:00:42;102349.88;;;11.88;100.00
21520;BME280;10921;53.614;9.882;2023-10-08T08:03:18;102373.28;;;12.08;100.00
21520;BME280;10921;53.614;9.882;2023-10-08T08:05:46;102375.53;;;12.14;100.00
21520;BME280;10921;53.614;9.882;2023-10-08T08:08:14;102320.06;;;11.92;100.00
21520;BME280;10921;53.614;9.882;2023-10-08T08:10:44;102358.09;;;12.09;100.00
21520;BME280;10921;53.614;9.882;2023-10-08T08:13:11;102388.84;;;12.27;99.86
21520;BME280;10921;53.614;9.882;2023-10-08T08:15:38;102397.38;;;12.32;99.57
21520;BME280;10921;53.614;9.882;2023-10-08T08:18:14;102361.19;;;12.15;97.72
21520;BME280;10921;53.614;9.882;2023-10-08T08:20:49;102332.94;;;12.11;96.88
21520;BME280;10921;53.614;9.882;2023-10-08T08:23:16;102389.41;;;12.43;96.34
21520;BME280;10921;53.614;9.882;2023-10-08T08:25:43;102365.03;;;12.35;95.63
21520;BME280;10921;53.614;9.882;2023-10-08T08:28:12;102369.16;;;12.39;94.50
21520;BME280;10921;53.614;9.882;2023-10-08T08:30:47;102416.41;;;12.75;93.10
21520;BME280;10921;53.614;9.882;2023-10-08T08:33:14;102412.63;;;12.78;91.15
21520;BME280;10921;53.614;9.882;2023-10-08T08:36:01;102399.13;;;12.79;90.73
21520;BME280;10921;53.614;9.882;2023-10-08T08:38:28;102435.94;;;12.99;88.21
21520;BME280;10921;53.614;9.882;2023-10-08T08:41:03;102434.38;;;13.08;85.65
21520;BME280;10921;53.614;9.882;2023-10-08T08:43:39;102432.72;;;13.18;85.20
21520;BME280;10921;53.614;9.882;2023-10-08T08:46:10;102433.84;;;13.27;85.31
21520;BME280;10921;53.614;9.882;2023-10-08T08:48:42;102410.31;;;13.19;84.50
21520;BME280;10921;53.614;9.882;2023-10-08T08:51:11;102421.28;;;13.38;83.91
21520;BME280;10921;53.614;9.882;2023-10-08T08:53:39;102423.34;;;13.46;81.65
21520;BME280;10921;53.614;9.882;2023-10-08T08:56:07;102428.34;;;13.62;81.63
21520;BME280;10921;53.614;9.882;2023-10-08T08:58:36;102408.72;;;13.61;82.26
21520;BME280;10921;53.614;9.882;2023-10-08T09:01:06;102454.28;;;13.95;80.03
21520;BME280;10921;53.614;9.882;2023-10-08T09:03:35;102447.22;;;14.05;79.95
21520;BME280;10921;53.614;9.882;2023-10-08T09:06:04;102444.94;;;14.21;79.88
21520;BME280;10921;53.614;9.882;2023-10-08T09:08:35;102461.41;;;14.50;78.34
21520;BME280;10921;53.614;9.882;2023-10-08T09:11:02;102433.41;;;14.53;74.35
21520;BME280;10921;53.614;9.882;2023-10-08T09:13:31;102461.91;;;14.97;78.03
21520;BME280;10921;53.614;9.882;2023-10-08T09:16:14;102451.72;;;15.21;77.00
21520;BME280;10921;53.614;9.882;2023-10-08T09:18:43;102447.84;;;15.35;73.27
21520;BME280;10921;53.614;9.882;2023-10-08T09:21:16;102416.88;;;15.40;72.66
21520;BME280;10921;53.614;9.882;2023-10-08T09:23:52;102439.88;;;15.85;70.58
21520;BME280;10921;53.614;9.882;2023-10-08T09:26:25;102464.19;;;16.23;70.63
21520;BME280;10921;53.614;9.882;2023-10-08T09:28:52;102462.81;;;16.48;63.82
21520;BME280;10921;53.614;9.882;2023-10-08T09:31:22;102438.00;;;16.73;65.71
21520;BME280;10921;53.614;9.882;2023-10-08T09:33:54;102441.66;;;17.01;64.95
21520;BME280;10921;53.614;9.882;2023-10-08T09:36:22;102467.69;;;17.39;60.99
21520;BME280;10921;53.614;9.882;2023-10-08T09:39:03;102483.34;;;17.73;62.61
21520;BME280;10921;53.614;9.882;2023-10-08T09:41:32;102471.91;;;17.88;58.29
21520;BME280;10921;53.614;9.882;2023-10-08T09:43:59;102486.19;;;18.08;56.81
21520;BME280;10921;53.614;9.882;2023-10-08T09:46:30;102463.81;;;18.16;57.29
21520;BME280;10921;53.614;9.882;2023-10-08T09:49:00;102483.59;;;18.34;54.13
21520;BME280;10921;53.614;9.882;2023-10-08T09:51:31;102480.13;;;18.42;53.88
21520;BME280;10921;53.614;9.882;2023-10-08T09:54:07;102491.88;;;18.50;55.24
21520;BME280;10921;53.614;9.882;2023-10-08T09:56:39;102480.31;;;18.58;55.45
21520;BME280;10921;53.614;9.882;2023-10-08T09:59:07;102481.25;;;18.67;54.38
21520;BME280;10921;53.614;9.882;2023-10-08T10:01:38;102444.59;;;18.54;53.36
21520;BME280;10921;53.614;9.882;2023-10-08T10:04:10;102482.31;;;18.91;53.31
21520;BME280;10921;53.614;9.882;2023-10-08T10:06:38;102485.31;;;19.06;53.43
21520;BME280;10921;53.614;9.882;2023-10-08T10:09:06;102445.16;;;18.93;52.94
21520;BME280;10921;53.614;9.882;2023-10-08T10:11:48;102477.09;;;19.42;55.28
21520;BME280;10921;53.614;9.882;2023-10-08T10:14:22;102475.59;;;19.47;52.27
21520;BME280;10921;53.614;9.882;2023-10-08T10:17:08;102501.91;;;19.89;56.26
21520;BME280;10921;53.614;9.882;2023-10-08T10:19:36;102504.16;;;19.93;50.59
21520;BME280;10921;53.614;9.882;2023-10-08T10:22:02;102485.09;;;20.11;51.39
21520;BME280;10921;53.614;9.882;2023-10-08T10:24:35;102497.84;;;20.35;53.13
21520;BME280;10921;53.614;9.882;2023-10-08T10:27:12;102483.34;;;20.52;53.57
21520;BME280;10921;53.614;9.882;2023-10-08T10:29:42;102501.81;;;20.65;50.13
21520;BME280;10921;53.614;9.882;2023-10-08T10:32:16;102471.59;;;20.35;48.60
21520;BME280;10921;53.614;9.882;2023-10-08T10:34:44;102490.72;;;20.34;48.67
21520;BME280;10921;53.614;9.882;2023-10-08T10:37:14;102497.47;;;20.22;49.72
21520;BME280;10921;53.614;9.882;2023-10-08T10:39:54;102437.91;;;19.88;51.79
21520;BME280;10921;53.614;9.882;2023-10-08T10:42:22;102492.53;;;20.17;51.45
21520;BME280;10921;53.614;9.882;2023-10-08T10:44:49;102487.31;;;20.24;51.48
21520;BME280;10921;53.614;9.882;2023-10-08T10:47:17;102473.78;;;20.32;50.91
21520;BME280;10921;53.614;9.882;2023-10-08T10:49:48;102488.06;;;20.42;52.48
21520;BME280;10921;53.614;9.882;2023-10-08T10:52:33;102472.66;;;20.51;51.30
21520;BME280;10921;53.614;9.882;2023-10-08T10:55:19;102476.06;;;20.53;52.79
21520;BME280;10921;53.614;9.882;2023-10-08T10:57:54;102461.31;;;20.63;50.35
21520;BME280;10921;53.614;9.882;2023-10-08T11:00:24;102450.47;;;20.55;50.51
21520;BME280;10921;53.614;9.882;2023-10-08T11:03:01;102438.59;;;20.56;50.32
21520;BME280;10921;53.614;9.882;2023-10-08T11:05:50;102458.28;;;20.83;52.68
21520;BME280;10921;53.614;9.882;2023-10-08T11:08:18;102442.50;;;20.86;49.26
21520;BME280;10921;53.614;9.882;2023-10-08T11:10:47;102437.41;;;20.99;48.10
21520;BME280;10921;53.614;9.882;2023-10-08T11:13:23;102452.84;;;21.07;45.86
21520;BME280;10921;53.614;9.882;2023-10-08T11:15:54;102456.22;;;21.25;44.61
21520;BME280;10921;53.614;9.882;2023-10-08T11:18:26;102429.06;;;21.33;44.56
21520;BME280;10921;53.614;9.882;2023-10-08T11:21:06;102396.44;;;21.41;47.04
21520;BME280;10921;53.614;9.882;2023-10-08T11:23:47;102441.06;;;21.86;44.86
21520;BME280;10921;53.614;9.882;2023-10-08T11:26:21;102438.69;;;21.99;43.94
21520;BME280;10921;53.614;9.882;2023-10-08T11:28:59;102451.78;;;22.27;44.73
21520;BME280;10921;53.614;9.882;2023-10-08T11:31:31;102436.53;;;22.40;41.95
21520;BME280;10921;53.614;9.882;2023-10-08T11:34:04;102445.94;;;22.61;44.18
21520;BME280;10921;53.614;9.882;2023-10-08T11:36:39;102451.97;;;22.71;46.12
21520;BME280;10921;53.614;9.882;2023-10-08T11:39:16;102441.56;;;22.74;44.58
21520;BME280;10921;53.614;9.882;2023-10-08T11:41:58;102437.03;;;22.90;42.75
21520;BME280;10921;53.614;9.882;2023-10-08T11:44:31;102438.16;;;22.72;42.44
21520;BME280;10921;53.614;9.882;2023-10-08T11:47:03;102439.44;;;22.62;40.27
21520;BME280;10921;53.614;9.882;2023-10-08T11:49:47;102450.63;;;22.67;39.77
21520;BME280;10921;53.614;9.882;2023-10-08T11:52:17;102447.53;;;22.47;38.21
21520;BME280;10921;53.614;9.882;2023-10-08T11:54:48;102443.28;;;22.22;41.68
21520;BME280;10921;53.614;9.882;2023-10-08T11:57:15;102434.25;;;21.98;41.24
21520;BME280;10921;53.614;9.882;2023-10-08T11:59:48;102414.28;;;21.75;40.42
21520;BME280;10921;53.614;9.882;2023-10-08T12:02:15;102430.69;;;21.90;41.92
21520;BME280;10921;53.614;9.882;2023-10-08T12:04:43;102412.25;;;21.77;40.26
21520;BME280;10921;53.614;9.882;2023-10-08T12:07:14;102435.91;;;22.07;40.08
21520;BME280;10921;53.614;9.882;2023-10-08T12:09:44;102444.50;;;22.19;39.93
21520;BME280;10921;53.614;9.882;2023-10-08T12:12:15;102454.66;;;22.48;39.57
21520;BME280;10921;53.614;9.882;2023-10-08T12:14:42;102427.91;;;22.60;39.84
21520;BME280;10921;53.614;9.882;2023-10-08T12:17:12;102441.44;;;22.91;38.23
21520;BME280;10921;53.614;9.882;2023-10-08T12:19:38;102371.78;;;22.82;37.92
21520;BME280;10921;53.614;9.882;2023-10-08T12:22:09;102374.78;;;22.87;38.54
21520;BME280;10921;53.614;9.882;2023-10-08T12:24:37;102422.03;;;23.23;40.35
21520;BME280;10921;53.614;9.882;2023-10-08T12:27:04;102379.59;;;22.99;39.16
21520;BME280;10921;53.614;9.882;2023-10-08T12:29:31;102409.06;;;23.10;39.69
21520;BME280;10921;53.614;9.882;2023-10-08T12:31:59;102404.19;;;22.91;40.63
21520;BME280;10921;53.614;9.882;2023-10-08T12:34:26;102392.22;;;22.77;38.47
21520;BME280;10921;53.614;9.882;2023-10-08T12:36:56;102406.28;;;23.04;42.61
21520;BME280;10921;53.614;9.882;2023-10-08T12:39:22;102420.22;;;22.40;41.05
21520;BME280;10921;53.614;9.882;2023-10-08T12:41:54;102415.16;;;22.15;41.19
21520;BME280;10921;53.614;9.882;2023-10-08T12:44:23;102397.50;;;21.71;42.01
21520;BME280;10921;53.614;9.882;2023-10-08T12:46:50;102435.72;;;21.70;41.00
21520;BME280;10921;53.614;9.882;2023-10-08T12:49:17;102433.44;;;21.51;39.49
21520;BME280;10921;53.614;9.882;2023-10-08T12:51:47;102424.66;;;21.32;40.96
21520;BME280;10921;53.614;9.882;2023-10-08T12:54:14;102392.63;;;21.03;41.74
21520;BME280;10921;53.614;9.882;2023-10-08T12:56:48;102426.34;;;21.09;43.34
21520;BME280;10921;53.614;9.882;2023-10-08T12:59:15;102391.81;;;20.70;43.75
21520;BME280;10921;53.614;9.882;2023-10-08T13:01:50;102436.41;;;20.84;43.93
21520;BME280;10921;53.614;9.882;2023-10-08T13:04:18;102420.81;;;20.70;46.75
21520;BME280;10921;53.614;9.882;2023-10-08T13:06:54;102431.84;;;20.60;47.91
21520;BME280;10921;53.614;9.882;2023-10-08T13:09:24;102434.34;;;20.54;48.32
21520;BME280;10921;53.614;9.882;2023-10-08T13:11:52;102449.94;;;20.44;48.25
21520;BME280;10921;53.614;9.882;2023-10-08T13:14:19;102456.19;;;20.36;48.54
21520;BME280;10921;53.614;9.882;2023-10-08T13:16:45;102429.53;;;20.15;47.39